Camden, SC

7:05 AM EST on January 21, 2017 (GMT -0500)
Camden | | Change Station

Elev 302 ft 34.28 °N, 80.56 °W | Updated 10 minutes ago

Overcast
Overcast
52 °F
Feels Like 52 °F
N
0
Wind Variable Wind from North

Today
High -- | Low -- °F
--% Chance of Precip.
Yesterday
High -- | Low -- °F
Precip. -- in
Pressure 29.90 in
Visibility 1.0 miles
Clouds Overcast 100 ft
Dew Point 52 °F
Humidity 100%
Rainfall 0.00 in
Snow Depth Not available.
7:26 AM 5:41 PM
Waning Crescent, 35% visible
METAR KCDN 211155Z AUTO 00000KT 1SM BR OVC001 11/11 A2990 RMK AO2
Pressure 29.90 in
Visibility 1.0 miles
Clouds Overcast 100 ft
Dew Point 52 °F
Humidity 100%
Rainfall 0.00 in
Snow Depth Not available.
7:26 AM 5:41 PM
Waning Crescent, 35% visible
METAR KCDN 211155Z AUTO 00000KT 1SM BR OVC001 11/11 A2990 RMK AO2

Get Your Daily Forecast Email!

Thanks for signing up!

Be on the lookout for a verification email in your inbox.

You'll start receiving the daily forecast at 8 AM.

×

10-Day Weather Forecast

Almanac

Astronomy

Jan. 21, 2017 Rise Set
Actual Time
Civil Twilight
Nautical Twilight
Astronomical Twilight
Moon
Length of Visible Light
Length of Day
Tomorrow will be .
, % of the Moon is Illuminated

Today's Extremes

State Highs State Lows

Community

WunderPhotos

Upload Photos

1,962,540 photos uploaded!

WunderBlog® & News

Nearby

Air Quality

  Air Quality AQ Index Pollutant
Not available.

Snow Depth

Station Depth Elevation

Earthquake Activity

City Distance Mag. Time & Date
Minimum magnitude displayed is 2.5.

Coastal Water Temperatures

Place Temperature

Stations

Nearby Weather Stations

Station Location Temp. Windchill Dew Point Humidity Wind Precip. Elev Updated Type
                   

Watches & Warnings

Dense Fog Advisory
Issued: 6:40 AM EST Jan. 21, 2017 – National Weather Service

... Dense fog advisory remains in effect until 10 am EST this
morning...

* visibilities... one quarter mile or less at times.

* Timing... until 10 am.

* Impacts... hazardous driving conditions.

Precautionary/preparedness actions...

A dense fog advisory means visibilities will be frequently
reduced to less than one quarter mile. If you have to drive in
the fog... be careful and allow yourself extra time.




Small Craft Advisory
Issued: 6:33 AM EST Jan. 21, 2017 – National Weather Service

... Small Craft Advisory remains in effect from 10 am Sunday to
7 am EST Tuesday...

* impacts... wind and or wave conditions will be hazardous to
small craft.

Precautionary/preparedness actions...

During a Small Craft Advisory... inexperienced mariners...
especially those operating smaller vessels... should avoid
navigating in hazardous conditions.